Time;durP1;ratioP1;P1;durP2;ratioP2;P2;SDS_P1;SDS_P2;PMS_P1;PMS_P2;Temp;Humidity;BMP_temperature;BMP_pressure;BME280_temperature;BME280_humidity;BME280_pressure;Samples;Min_cycle;Max_cycle;Signal;HPM_P1;HPM_P2
2021/06/20 00:01:04;;;;;;;9.93;2.55;;;;;;;22.11;100.00;101000.52;1810319;78;21175;-94
2021/06/20 00:03:30;;;;;;;6.83;1.77;;;;;;;22.10;100.00;100997.54;1811917;78;20943;-96
2021/06/20 00:06:00;;;;;;;6.70;1.77;;;;;;;22.06;100.00;100993.84;1812420;78;20853;-93
2021/06/20 00:08:27;;;;;;;8.40;1.87;;;;;;;22.03;100.00;100999.16;1778859;78;21054;-92
2021/06/20 00:10:53;;;;;;;6.40;1.95;;;;;;;22.02;100.00;101004.42;1811747;78;20964;-92
2021/06/20 00:13:20;;;;;;;7.10;1.80;;;;;;;22.02;100.00;101004.42;1810650;78;21961;-93
2021/06/20 00:15:48;;;;;;;13.53;1.72;;;;;;;21.98;100.00;101002.91;1810400;78;21483;-91
2021/06/20 00:18:15;;;;;;;5.80;1.40;;;;;;;21.95;100.00;101001.62;1807260;78;21530;-94
2021/06/20 00:20:47;;;;;;;11.08;1.50;;;;;;;21.92;100.00;101000.90;1806280;78;21670;-91
2021/06/20 00:23:13;;;;;;;7.30;1.10;;;;;;;21.90;100.00;100994.92;1808077;78;20991;-92
2021/06/20 00:25:39;;;;;;;7.83;1.30;;;;;;;21.89;100.00;100998.01;1809923;78;20923;-92
2021/06/20 00:28:06;;;;;;;8.28;1.20;;;;;;;21.84;100.00;100996.80;1808804;79;20980;-92
2021/06/20 00:30:36;;;;;;;5.65;1.12;;;;;;;21.79;100.00;100999.14;1806319;78;21125;-90
2021/06/20 00:33:03;;;;;;;5.65;1.57;;;;;;;21.77;100.00;100998.11;1812035;78;21102;-93
2021/06/20 00:35:29;;;;;;;8.50;1.10;;;;;;;21.74;100.00;101002.08;1813320;78;20979;-90
2021/06/20 00:37:57;;;;;;;9.30;1.80;;;;;;;21.72;100.00;101011.19;1810147;79;20983;-91
2021/06/20 00:40:23;;;;;;;8.65;1.15;;;;;;;21.63;100.00;101002.16;1784725;79;21547;-89
2021/06/20 00:42:55;;;;;;;6.65;1.15;;;;;;;21.44;100.00;101010.70;1767754;80;21089;-90
2021/06/20 00:45:22;;;;;;;5.58;1.15;;;;;;;21.27;100.00;101014.25;1769217;79;21070;-90
2021/06/20 00:53:09;;;;;;;2.12;1.12;;;;;;;20.99;100.00;101029.59;1815636;79;22459;-89
2021/06/20 00:55:40;;;;;;;3.12;1.20;;;;;;;20.94;100.00;101028.93;1788926;80;21837;-89
2021/06/20 00:58:08;;;;;;;6.00;1.27;;;;;;;20.91;100.00;101041.33;1788977;80;21181;-90
2021/06/20 01:00:36;;;;;;;7.33;1.50;;;;;;;20.88;100.00;101040.59;1759087;80;21011;-92
2021/06/20 01:03:04;;;;;;;3.75;1.10;;;;;;;20.86;100.00;101042.87;1789143;80;21067;-90
2021/06/20 01:05:31;;;;;;;6.95;1.40;;;;;;;20.85;100.00;101050.28;1789036;80;21559;-90
2021/06/20 01:07:57;;;;;;;7.85;1.30;;;;;;;20.85;100.00;101043.44;1789027;80;20999;-89
2021/06/20 01:10:35;;;;;;;6.58;1.40;;;;;;;20.82;100.00;101039.96;1789167;80;21076;-90
2021/06/20 01:12:58;;;;;;;5.78;1.70;;;;;;;20.82;100.00;101025.44;1784108;80;20972;-91
2021/06/20 01:15:25;;;;;;;5.50;1.30;;;;;;;20.78;100.00;101019.79;1784141;80;21771;-91
2021/06/20 01:17:51;;;;;;;5.25;1.25;;;;;;;20.74;100.00;101025.67;1789068;80;21027;-91
2021/06/20 01:20:19;;;;;;;6.15;1.50;;;;;;;20.73;100.00;101030.88;1789104;80;21042;-91
2021/06/20 01:22:54;;;;;;;5.22;1.00;;;;;;;20.74;100.00;101028.41;1789055;80;21091;-92
2021/06/20 01:25:23;;;;;;;3.85;1.25;;;;;;;20.74;100.00;101020.19;1789068;80;21018;-92
2021/06/20 01:27:58;;;;;;;11.75;1.60;;;;;;;20.77;100.00;101013.28;1789076;80;21031;-91
2021/06/20 01:30:30;;;;;;;6.80;1.60;;;;;;;20.79;100.00;101004.95;1788823;80;20996;-92
2021/06/20 01:33:58;;;;;;;10.03;1.22;;;;;;;20.76;100.00;101004.23;1788895;80;21018;-90
2021/06/20 01:36:25;;;;;;;3.15;1.30;;;;;;;20.75;100.00;101012.21;1788954;80;21098;-90
2021/06/20 01:38:51;;;;;;;4.22;1.22;;;;;;;20.71;100.00;101002.22;1788935;80;21472;-92
2021/06/20 01:41:17;;;;;;;11.20;1.37;;;;;;;20.67;100.00;101006.70;1788891;80;20948;-91
2021/06/20 01:43:43;;;;;;;3.20;1.05;;;;;;;20.65;100.00;101000.19;1789271;80;21093;-89
2021/06/20 01:46:09;;;;;;;3.02;1.20;;;;;;;20.64;100.00;101003.47;1758449;80;20907;-89
2021/06/20 01:48:36;;;;;;;6.33;1.20;;;;;;;20.65;100.00;101004.30;1789286;80;21153;-90
2021/06/20 01:51:05;;;;;;;2.00;0.90;;;;;;;20.65;100.00;101002.94;1788163;80;21062;-91
2021/06/20 01:53:31;;;;;;;4.40;1.25;;;;;;;20.66;100.00;100998.26;1775579;80;21471;-92
2021/06/20 01:55:57;;;;;;;10.53;1.02;;;;;;;20.68;100.00;101000.09;1775435;80;20868;-89
2021/06/20 01:58:23;;;;;;;3.80;1.10;;;;;;;20.71;100.00;100994.81;1775710;80;20862;-89
2021/06/20 02:00:52;;;;;;;7.12;1.12;;;;;;;20.75;100.00;100992.23;1775491;80;21103;-91
2021/06/20 02:03:27;;;;;;;5.80;1.55;;;;;;;20.78;100.00;100991.03;1775272;80;20937;-91
2021/06/20 02:05:56;;;;;;;8.35;1.17;;;;;;;20.84;100.00;100989.75;1774452;80;21039;-93
2021/06/20 02:08:22;;;;;;;6.25;1.42;;;;;;;20.89;100.00;100988.00;1771162;80;21019;-92
2021/06/20 02:10:55;;;;;;;9.68;1.40;;;;;;;20.87;100.00;100994.59;1775090;80;21110;-89
2021/06/20 02:13:27;;;;;;;6.87;1.02;;;;;;;20.89;100.00;100990.74;1775060;80;21392;-92
2021/06/20 02:15:53;;;;;;;10.13;1.35;;;;;;;20.86;100.00;100993.55;1774522;80;21004;-89
2021/06/20 02:18:20;;;;;;;6.78;0.80;;;;;;;20.85;100.00;100995.49;1774926;80;21075;-91
2021/06/20 02:20:46;;;;;;;10.25;1.72;;;;;;;20.81;100.00;100991.76;1774952;80;20976;-90
2021/06/20 02:23:12;;;;;;;10.10;1.20;;;;;;;20.76;100.00;100987.79;1775099;80;21031;-90
2021/06/20 02:25:41;;;;;;;4.00;1.20;;;;;;;20.75;100.00;100994.41;1771197;80;21707;-93
2021/06/20 02:28:07;;;;;;;17.55;1.52;;;;;;;20.74;100.00;100994.17;1774642;80;21027;-91
2021/06/20 02:30:33;;;;;;;12.37;1.50;;;;;;;20.75;100.00;100990.86;1774919;80;21000;-94
2021/06/20 02:33:05;;;;;;;11.35;1.10;;;;;;;20.78;100.00;100980.07;1774903;80;21547;-88
2021/06/20 02:35:31;;;;;;;5.87;1.20;;;;;;;20.82;100.00;100985.71;1774684;80;21218;-93
2021/06/20 02:37:57;;;;;;;5.62;1.47;;;;;;;20.84;100.00;100985.64;1775241;80;21796;-88
2021/06/20 02:40:23;;;;;;;7.70;1.05;;;;;;;20.88;100.00;100984.43;1774886;80;21031;-91
2021/06/20 02:42:49;;;;;;;11.25;1.35;;;;;;;20.93;100.00;100986.22;1775054;80;20888;-90
2021/06/20 02:45:34;;;;;;;2.58;1.05;;;;;;;20.94;100.00;100983.18;1774906;80;20972;-92
2021/06/20 02:48:00;;;;;;;4.40;0.95;;;;;;;20.98;100.00;100984.70;1744259;82;21547;-91
2021/06/20 02:50:26;;;;;;;4.97;1.00;;;;;;;21.03;100.00;100972.20;1744334;82;21078;-92
2021/06/20 02:53:04;;;;;;;9.93;1.77;;;;;;;21.07;100.00;100968.51;1749276;82;20983;-92
2021/06/20 02:55:30;;;;;;;4.65;1.10;;;;;;;21.11;100.00;100963.19;1752482;81;21027;-91
2021/06/20 02:57:56;;;;;;;5.40;1.20;;;;;;;21.13;100.00;100960.13;1752271;82;20836;-92
2021/06/20 03:00:25;;;;;;;5.03;0.90;;;;;;;21.14;100.00;100961.17;1752196;81;20880;-93
2021/06/20 03:02:51;;;;;;;12.47;1.37;;;;;;;21.17;100.00;100967.38;1752288;82;21487;-92
2021/06/20 03:05:19;;;;;;;5.97;1.30;;;;;;;21.20;100.00;100970.04;1752251;82;20879;-91
2021/06/20 03:07:45;;;;;;;3.27;1.00;;;;;;;21.25;100.00;100966.58;1752350;81;21411;-90
2021/06/20 03:10:12;;;;;;;11.15;1.70;;;;;;;21.36;100.00;100969.01;1752192;81;21038;-91
2021/06/20 03:12:38;;;;;;;6.70;1.22;;;;;;;21.50;100.00;100964.16;1752310;82;21057;-94
2021/06/20 03:15:06;;;;;;;10.72;1.95;;;;;;;21.69;100.00;100964.62;1752357;82;21475;-96
2021/06/20 03:17:31;;;;;;;4.03;1.32;;;;;;;21.97;100.00;100966.97;1752276;82;21003;-93
2021/06/20 03:19:57;;;;;;;11.78;1.60;;;;;;;22.21;100.00;100965.08;1752257;81;20959;-92
2021/06/20 03:22:25;;;;;;;3.20;1.40;;;;;;;22.37;100.00;100974.94;1752229;82;20955;-93
2021/06/20 03:24:51;;;;;;;8.35;2.00;;;;;;;22.37;100.00;100970.81;1752296;82;21079;-92
2021/06/20 03:27:19;;;;;;;12.70;2.17;;;;;;;22.38;100.00;100967.75;1722440;82;21139;-91
2021/06/20 03:29:46;;;;;;;6.60;1.67;;;;;;;22.50;100.00;100975.29;1747036;82;21066;-93
2021/06/20 03:32:16;;;;;;;21.23;2.33;;;;;;;22.55;100.00;100966.84;1751905;81;20971;-91
2021/06/20 03:34:43;;;;;;;6.08;1.72;;;;;;;22.56;100.00;100965.72;1752148;81;20999;-91
2021/06/20 03:37:09;;;;;;;3.05;1.50;;;;;;;22.61;100.00;100966.08;1752216;81;21018;-94
2021/06/20 03:39:37;;;;;;;8.20;2.12;;;;;;;22.66;99.73;100970.81;1752331;82;21136;-93
2021/06/20 03:42:06;;;;;;;9.18;1.90;;;;;;;22.74;98.33;100970.54;1752131;82;20971;-92
2021/06/20 03:44:31;;;;;;;19.62;2.52;;;;;;;22.68;98.15;100971.30;1752378;82;21038;-93
2021/06/20 03:46:58;;;;;;;7.78;1.77;;;;;;;22.54;98.55;100975.42;1752333;82;20833;-93
2021/06/20 03:49:25;;;;;;;8.78;1.90;;;;;;;22.43;100.00;100977.16;1752010;82;20948;-91
2021/06/20 03:51:51;;;;;;;10.75;2.15;;;;;;;22.47;100.00;100971.80;1751056;80;21144;-90
2021/06/20 03:54:17;;;;;;;11.18;1.92;;;;;;;22.64;99.47;100978.58;1744133;82;21038;-91
2021/06/20 03:56:44;;;;;;;9.50;1.60;;;;;;;22.59;99.00;100972.47;1743763;82;20987;-91
2021/06/20 03:59:11;;;;;;;8.05;1.40;;;;;;;22.51;99.76;100974.14;1744149;82;21491;-92
2021/06/20 04:01:37;;;;;;;4.08;1.12;;;;;;;22.45;99.31;100972.15;1743987;82;20976;-93
2021/06/20 04:04:05;;;;;;;7.25;1.20;;;;;;;22.43;100.00;100970.86;1744292;82;21139;-89
2021/06/20 04:10:21;;;;;;;12.58;1.52;;;;;;;22.92;100.00;100977.30;1743983;82;21563;-91
2021/06/20 04:12:47;;;;;;;14.55;1.42;;;;;;;23.17;95.35;100970.81;1744231;82;20991;-91
2021/06/20 04:15:13;;;;;;;4.30;1.35;;;;;;;23.24;94.02;100975.22;1744156;82;20869;-92
2021/06/20 04:17:39;;;;;;;6.25;1.50;;;;;;;23.29;94.05;100982.45;1744090;82;21128;-94
2021/06/20 04:20:07;;;;;;;9.80;1.72;;;;;;;23.28;97.19;100983.59;1744003;82;21007;-92
2021/06/20 04:26:15;;;;;;;11.35;1.35;;;;;;;23.20;96.72;100979.77;1743978;82;21432;-92
2021/06/20 04:28:41;;;;;;;7.05;1.17;;;;;;;23.13;95.74;100977.56;1744329;82;21056;-96
2021/06/20 04:31:08;;;;;;;6.12;1.32;;;;;;;23.15;94.67;100968.99;1743970;82;21073;-93
2021/06/20 04:33:34;;;;;;;7.35;1.30;;;;;;;23.33;93.79;100988.33;1723073;82;21566;-93
2021/06/20 04:36:00;;;;;;;5.40;1.12;;;;;;;23.57;91.13;100975.23;1744243;82;20911;-95
2021/06/20 04:38:26;;;;;;;6.62;1.40;;;;;;;23.67;90.77;100973.20;1744200;82;21074;-92
2021/06/20 04:40:59;;;;;;;7.12;1.57;;;;;;;23.65;90.03;100973.55;1744329;82;20841;-94
2021/06/20 04:43:26;;;;;;;2.17;1.40;;;;;;;23.79;89.72;100971.89;1741006;82;21582;-94
2021/06/20 04:45:52;;;;;;;7.72;1.37;;;;;;;24.20;84.49;100963.23;1740614;82;21032;-96
2021/06/20 04:48:19;;;;;;;6.42;1.25;;;;;;;24.67;86.34;100954.53;1744505;82;21047;-96
2021/06/20 04:50:56;;;;;;;11.10;1.80;;;;;;;25.24;80.58;100956.86;1743927;82;21000;-93
2021/06/20 04:53:22;;;;;;;12.63;1.70;;;;;;;25.64;75.25;100962.28;1748785;82;21494;-94
2021/06/20 04:55:48;;;;;;;22.15;1.85;;;;;;;25.74;72.85;100941.66;1752362;82;21080;-94
2021/06/20 04:58:14;;;;;;;4.62;1.40;;;;;;;25.74;73.89;100947.98;1752163;82;20938;-93
2021/06/20 05:00:39;;;;;;;10.80;1.47;;;;;;;25.94;73.44;100952.25;1722685;82;20892;-94
2021/06/20 05:06:46;;;;;;;6.97;1.30;;;;;;;26.03;71.00;100955.08;1752216;82;20987;-96
2021/06/20 05:09:18;;;;;;;12.90;1.20;;;;;;;26.03;67.96;100937.12;1752466;82;21155;-96
2021/06/20 05:11:44;;;;;;;9.45;1.65;;;;;;;26.19;65.72;100944.02;1752416;82;20980;-96
2021/06/20 05:14:10;;;;;;;5.17;1.02;;;;;;;26.31;64.05;100936.20;1752463;82;21632;-96
2021/06/20 05:16:39;;;;;;;15.50;1.27;;;;;;;26.34;64.49;100956.80;1752225;82;20928;-92
2021/06/20 05:19:05;;;;;;;13.80;1.62;;;;;;;26.55;64.38;100944.09;1752223;82;21445;-92
2021/06/20 05:21:33;;;;;;;12.70;1.55;;;;;;;26.65;62.48;100939.36;1722549;82;21180;-92
2021/06/20 05:24:02;;;;;;;4.72;1.42;;;;;;;26.49;62.02;100947.67;1751651;82;21003;-94
2021/06/20 05:26:28;;;;;;;7.22;1.47;;;;;;;26.41;63.54;100950.84;1752331;82;21027;-95
2021/06/20 05:28:54;;;;;;;11.90;1.32;;;;;;;26.45;63.59;100951.75;1752404;81;21522;-95
2021/06/20 05:35:11;;;;;;;6.35;1.42;;;;;;;26.46;63.51;100971.89;1750874;82;20992;-94
2021/06/20 05:37:37;;;;;;;12.88;1.85;;;;;;;26.28;62.73;100968.70;1752447;82;20983;-94
2021/06/20 05:40:05;;;;;;;8.00;1.17;;;;;;;26.03;63.14;100963.92;1722611;82;21004;-95
2021/06/20 05:42:31;;;;;;;9.98;2.12;;;;;;;25.85;67.05;100965.42;1753134;80;21030;-95
2021/06/20 05:44:57;;;;;;;4.95;1.87;;;;;;;25.83;68.24;100965.80;1752390;81;21003;-94
2021/06/20 05:47:26;;;;;;;11.08;1.95;;;;;;;25.72;67.28;100963.30;1752476;81;21173;-95
2021/06/20 05:49:52;;;;;;;7.33;1.60;;;;;;;25.58;69.53;100960.94;1752086;82;21055;-94
2021/06/20 05:53:27;;;;;;;5.87;2.08;;;;;;;25.45;68.54;100960.20;1723738;80;20887;-95
2021/06/20 05:55:53;;;;;;;3.42;1.27;;;;;;;25.37;69.38;100961.16;1752157;81;21004;-94
2021/06/20 05:58:20;;;;;;;5.05;1.45;;;;;;;25.15;71.98;100949.52;1752468;82;21518;-91
2021/06/20 06:04:26;;;;;;;6.28;1.57;;;;;;;24.98;74.26;100954.48;1737887;81;20972;-93
2021/06/20 06:06:52;;;;;;;8.88;1.00;;;;;;;25.07;76.30;100954.56;1718410;82;20928;-93
2021/06/20 06:09:18;;;;;;;8.40;0.95;;;;;;;25.11;78.40;100962.94;1736138;82;20897;-94
2021/06/20 06:12:52;;;;;;;3.85;1.40;;;;;;;25.21;77.49;100952.84;1744093;82;21105;-95
2021/06/20 06:15:18;;;;;;;5.58;1.40;;;;;;;25.34;77.34;100958.52;1743117;82;21405;-95
2021/06/20 06:17:44;;;;;;;3.70;1.30;;;;;;;25.47;75.83;100954.32;1744288;82;21055;-96
2021/06/20 06:20:11;;;;;;;5.20;1.35;;;;;;;25.85;77.22;100954.38;1721993;81;20864;-93
2021/06/20 06:22:37;;;;;;;9.50;1.07;;;;;;;26.23;74.51;100954.56;1673490;85;21631;-94
2021/06/20 06:26:06;;;;;;;3.47;1.30;;;;;;;26.46;71.35;100959.45;1677252;85;20987;-94
2021/06/20 06:28:32;;;;;;;4.33;1.17;;;;;;;26.57;69.37;100963.89;1677101;85;22049;-96
2021/06/20 06:30:58;;;;;;;5.03;1.32;;;;;;;26.84;71.78;100964.30;1677740;85;21078;-95
2021/06/20 06:33:31;;;;;;;6.33;1.10;;;;;;;27.08;66.16;100963.23;1678105;85;20887;-96
2021/06/20 06:35:57;;;;;;;7.10;1.15;;;;;;;27.24;64.36;100967.36;1677505;85;21055;-94
2021/06/20 06:38:23;;;;;;;7.05;1.00;;;;;;;27.39;63.83;100973.98;1677658;85;20869;-95
2021/06/20 06:41:02;;;;;;;3.17;1.17;;;;;;;27.45;58.64;100973.11;1677387;85;21094;-94
2021/06/20 06:43:28;;;;;;;6.10;1.02;;;;;;;27.45;55.81;100971.72;1677358;85;21071;-96
2021/06/20 06:45:54;;;;;;;4.58;1.32;;;;;;;27.47;55.51;100960.47;1677834;85;21039;-96
2021/06/20 07:03:06;;;;;;;3.20;1.57;;;;;;;27.84;58.81;100966.34;1677084;85;21011;-91
2021/06/20 07:45:16;;;;;;;7.85;1.30;;;;;;;33.55;40.48;100919.89;1887098;76;22986;-86
2021/06/20 07:47:43;;;;;;;4.45;1.37;;;;;;;33.75;39.02;100927.94;1860117;77;21062;-86
2021/06/20 07:50:12;;;;;;;14.80;1.47;;;;;;;34.15;37.69;100932.61;1821485;77;21139;-85
2021/06/20 07:52:39;;;;;;;3.80;1.45;;;;;;;33.94;36.92;100927.97;1827219;77;21007;-84
2021/06/20 07:55:09;;;;;;;3.55;1.40;;;;;;;34.03;36.52;100923.30;1855031;77;20983;-84
2021/06/20 07:57:35;;;;;;;7.87;1.27;;;;;;;33.84;37.74;100919.08;1860255;77;21419;-85
2021/06/20 08:00:01;;;;;;;15.18;1.75;;;;;;;33.96;36.48;100918.57;1860454;77;21010;-85
2021/06/20 08:02:27;;;;;;;3.02;1.40;;;;;;;33.91;36.89;100898.03;1852950;77;21054;-86
2021/06/20 08:04:53;;;;;;;4.62;1.42;;;;;;;33.95;36.22;100891.82;1821663;78;20965;-87
2021/06/20 08:07:24;;;;;;;6.28;1.85;;;;;;;34.20;37.26;100886.61;1849081;77;21089;-86
2021/06/20 08:09:50;;;;;;;6.47;1.27;;;;;;;34.94;37.96;100872.95;1726688;82;21097;-86
2021/06/20 08:12:16;;;;;;;4.78;1.37;;;;;;;35.51;34.11;100878.38;1721235;82;20986;-85
2021/06/20 08:14:42;;;;;;;6.92;1.10;;;;;;;34.80;33.61;100873.34;1730559;82;21090;-85
2021/06/20 08:17:10;;;;;;;5.42;1.57;;;;;;;33.59;34.82;100890.73;1706206;82;21062;-86
2021/06/20 08:19:36;;;;;;;13.58;1.90;;;;;;;32.35;35.20;100899.80;1712642;83;21197;-85
2021/06/20 08:22:02;;;;;;;4.53;1.25;;;;;;;31.35;35.99;100899.77;1727303;82;21043;-81
2021/06/20 08:24:29;;;;;;;4.95;1.10;;;;;;;30.76;38.39;100906.27;1723369;81;21077;-83
2021/06/20 08:26:54;;;;;;;6.53;1.12;;;;;;;30.49;40.24;100914.69;1719653;81;21129;-82
2021/06/20 08:29:20;;;;;;;8.25;1.17;;;;;;;30.66;41.42;100915.98;1732360;81;21002;-82
2021/06/20 08:31:46;;;;;;;3.45;0.98;;;;;;;30.74;41.80;100914.23;1712626;82;20963;-83
2021/06/20 08:34:12;;;;;;;4.45;1.00;;;;;;;30.73;43.56;100918.78;1708568;81;20899;-83
2021/06/20 08:36:38;;;;;;;8.20;1.57;;;;;;;30.84;44.11;100918.87;1711248;83;21149;-82
2021/06/20 08:39:06;;;;;;;6.00;1.35;;;;;;;30.81;43.66;100929.40;1721150;81;21167;-82
2021/06/20 08:41:37;;;;;;;6.95;0.90;;;;;;;30.62;42.53;100934.62;1715194;81;21533;-81
2021/06/20 08:44:20;;;;;;;5.62;1.10;;;;;;;30.26;40.70;100943.53;1743927;81;21831;-83
2021/06/20 08:46:49;;;;;;;1.70;1.00;;;;;;;29.99;42.43;100943.49;1743287;81;21857;-80
2021/06/20 08:49:15;;;;;;;5.75;0.93;;;;;;;30.06;42.66;100934.63;1753166;81;21004;-80
2021/06/20 08:51:48;;;;;;;8.03;1.00;;;;;;;30.14;41.85;100922.95;1746008;81;21742;-80
2021/06/20 08:54:15;;;;;;;7.90;1.20;;;;;;;30.11;43.81;100912.61;1750313;81;21026;-80
2021/06/20 08:56:44;;;;;;;3.52;1.07;;;;;;;30.30;43.84;100908.81;1722959;81;21022;-80
2021/06/20 08:59:14;;;;;;;3.83;1.12;;;;;;;30.36;42.61;100900.91;1715290;82;21039;-80
2021/06/20 09:01:41;;;;;;;5.45;1.17;;;;;;;31.01;43.65;100907.02;1697339;84;21032;-82
2021/06/20 09:04:08;;;;;;;6.60;1.40;;;;;;;31.51;40.70;100918.32;1696975;84;21940;-80
2021/06/20 09:06:34;;;;;;;7.08;1.20;;;;;;;31.17;40.77;100920.59;1723720;81;21524;-81
2021/06/20 09:09:04;;;;;;;5.12;1.27;;;;;;;31.02;41.35;100930.08;1756263;81;20977;-81
2021/06/20 09:11:40;;;;;;;13.05;1.60;;;;;;;30.81;41.35;100943.31;1756457;81;21565;-80
2021/06/20 09:14:12;;;;;;;5.10;1.30;;;;;;;30.48;41.77;100944.48;1730204;81;20990;-84
2021/06/20 09:16:48;;;;;;;8.23;1.22;;;;;;;30.04;41.39;100936.20;1756616;81;21911;-81
2021/06/20 09:19:14;;;;;;;6.95;1.27;;;;;;;29.66;41.88;100936.84;1756120;81;21041;-81
2021/06/20 09:21:57;;;;;;;13.93;1.57;;;;;;;29.50;43.85;100943.19;1756340;81;21036;-82
2021/06/20 09:24:23;;;;;;;4.95;1.50;;;;;;;29.33;44.96;100942.63;1755711;81;21001;-80
2021/06/20 09:26:56;;;;;;;7.12;1.00;;;;;;;29.16;46.65;100934.89;1756425;81;20993;-81
2021/06/20 09:29:38;;;;;;;7.33;1.27;;;;;;;29.11;46.32;100927.69;1750224;82;21590;-81
2021/06/20 09:32:08;;;;;;;8.03;1.10;;;;;;;29.10;47.20;100922.52;1758534;81;21231;-81
2021/06/20 09:34:46;;;;;;;6.33;1.05;;;;;;;29.08;47.62;100919.32;1758501;81;21507;-81
2021/06/20 09:37:13;;;;;;;3.22;0.95;;;;;;;29.19;47.35;100915.48;1693846;84;21097;-80
2021/06/20 09:39:40;;;;;;;4.45;1.20;;;;;;;29.17;48.29;100912.28;1693761;84;21670;-82
2021/06/20 09:42:12;;;;;;;5.85;1.30;;;;;;;29.19;49.20;100907.16;1693857;84;21087;-82
2021/06/20 09:44:52;;;;;;;6.30;1.32;;;;;;;29.17;49.91;100917.05;1693831;84;21627;-82
2021/06/20 09:47:20;;;;;;;5.67;1.45;;;;;;;29.11;49.21;100899.13;1693459;83;21184;-82
2021/06/20 09:49:50;;;;;;;8.33;1.10;;;;;;;29.08;49.58;100905.44;1693947;84;21043;-81
2021/06/20 09:52:32;;;;;;;7.80;1.20;;;;;;;29.04;48.44;100906.00;1694281;84;21050;-81
2021/06/20 09:55:02;;;;;;;6.55;1.30;;;;;;;29.08;49.92;100912.38;1644793;86;22014;-82
2021/06/20 09:57:32;;;;;;;3.75;0.82;;;;;;;29.18;47.82;100900.62;1616660;87;21017;-82
2021/06/20 10:00:01;;;;;;;5.65;1.10;;;;;;;29.26;50.00;100903.66;1613144;87;21004;-81
2021/06/20 10:02:34;;;;;;;6.95;1.07;;;;;;;29.50;50.25;100900.13;1616681;88;21115;-82
2021/06/20 10:05:00;;;;;;;;;;;;;;;29.66;49.92;100896.56;1618768;87;21535;-81
2021/06/20 10:07:28;;;;;;;10.85;1.00;;;;;;;29.71;50.58;100900.95;1616532;87;21125;-80
2021/06/20 10:09:58;;;;;;;5.03;0.82;;;;;;;29.73;50.02;100897.21;1638078;87;21105;-82
2021/06/20 10:12:28;;;;;;;1.95;1.12;;;;;;;29.53;48.95;100893.25;1649108;87;21516;-81
2021/06/20 10:14:57;;;;;;;8.80;1.30;;;;;;;29.29;49.04;100889.02;1664800;85;21066;-82
2021/06/20 10:17:42;;;;;;;4.12;1.30;;;;;;;29.07;49.57;100889.38;1674861;85;21093;-80
2021/06/20 10:20:13;;;;;;;6.12;1.10;;;;;;;29.01;50.18;100892.85;1672246;85;21002;-81
2021/06/20 10:22:48;;;;;;;5.28;1.00;;;;;;;28.93;52.05;100883.63;1674624;85;21061;-81
2021/06/20 10:25:35;;;;;;;5.15;1.02;;;;;;;28.91;53.04;100882.61;1627887;87;21580;-82
2021/06/20 10:28:12;;;;;;;3.15;1.00;;;;;;;29.07;54.40;100884.42;1619410;88;21081;-81
2021/06/20 10:30:37;;;;;;;5.22;0.80;;;;;;;29.23;51.57;100879.44;1619183;87;21134;-81
2021/06/20 10:33:18;;;;;;;4.78;1.00;;;;;;;29.18;49.32;100879.80;1619644;87;21243;-80
2021/06/20 10:35:59;;;;;;;4.30;1.00;;;;;;;29.19;49.97;100875.84;1541942;91;21069;-80
2021/06/20 10:38:38;;;;;;;4.90;1.10;;;;;;;29.25;51.13;100867.97;1548901;91;21573;-80
2021/06/20 10:41:08;;;;;;;9.95;1.20;;;;;;;29.41;51.59;100873.50;1542024;91;21383;-80
2021/06/20 10:43:35;;;;;;;7.12;1.27;;;;;;;29.51;51.46;100873.38;1527719;91;21560;-80
2021/06/20 10:46:05;;;;;;;2.45;0.80;;;;;;;29.57;51.03;100875.22;1503182;94;21134;-80
2021/06/20 10:48:35;;;;;;;6.90;1.55;;;;;;;29.54;50.81;100875.39;1500303;91;21077;-79
2021/06/20 10:51:01;;;;;;;5.67;1.30;;;;;;;29.59;49.93;100877.00;1545868;91;21136;-80
2021/06/20 10:53:28;;;;;;;4.60;1.30;;;;;;;29.48;46.60;100862.25;1559889;91;21466;-80
2021/06/20 10:55:57;;;;;;;7.00;1.10;;;;;;;29.24;47.80;100853.86;1536918;91;21129;-80
2021/06/20 10:58:32;;;;;;;5.10;1.75;;;;;;;29.05;46.90;100861.80;1539310;91;21486;-78
2021/06/20 11:01:14;;;;;;;5.58;1.20;;;;;;;28.76;48.96;100860.03;1536096;93;21122;-80
2021/06/20 11:03:42;;;;;;;7.75;1.30;;;;;;;28.64;51.46;100860.28;1536017;93;21373;-80
2021/06/20 11:06:13;;;;;;;3.40;1.07;;;;;;;28.70;51.59;100848.47;1532707;93;21204;-79
2021/06/20 11:08:59;;;;;;;2.77;0.98;;;;;;;28.76;52.93;100852.50;1535974;93;21687;-79
2021/06/20 11:11:32;;;;;;;7.95;1.10;;;;;;;29.02;54.26;100854.20;1535842;93;22071;-79
2021/06/20 11:14:06;;;;;;;2.45;1.12;;;;;;;29.32;52.44;100852.75;1536067;93;21640;-79
2021/06/20 11:16:46;;;;;;;4.90;1.30;;;;;;;29.59;50.88;100845.06;1528092;93;21614;-80
2021/06/20 11:19:28;;;;;;;8.63;3.15;;;;;;;29.59;49.50;100848.66;1503442;95;21129;-80
2021/06/20 11:22:03;;;;;;;8.98;3.05;;;;;;;29.50;47.58;100866.80;1523914;92;21171;-81
2021/06/20 11:24:39;;;;;;;2.35;1.27;;;;;;;29.50;48.17;100853.72;1527076;94;21135;-80
2021/06/20 11:27:12;;;;;;;5.70;1.17;;;;;;;29.41;47.08;100856.84;1527446;94;21075;-79
2021/06/20 11:29:53;;;;;;;1.00;0.80;;;;;;;29.26;46.44;100855.08;1527582;94;21113;-80
2021/06/20 11:32:29;;;;;;;4.35;1.05;;;;;;;29.06;47.70;100855.88;1558134;90;21101;-80
2021/06/20 11:35:13;;;;;;;3.55;1.52;;;;;;;28.89;47.88;100862.78;1542521;91;21115;-80
2021/06/20 11:37:49;;;;;;;5.95;0.98;;;;;;;28.72;49.23;100878.63;1557223;91;21656;-78
2021/06/20 11:40:20;;;;;;;4.45;0.98;;;;;;;28.58;51.79;100861.79;1557961;91;21135;-79
2021/06/20 11:42:55;;;;;;;4.37;1.25;;;;;;;28.45;52.53;100861.23;1503625;95;21607;-79
2021/06/20 11:45:26;;;;;;;6.05;1.22;;;;;;;28.32;53.70;100868.92;1503038;94;21703;-79
2021/06/20 11:47:58;;;;;;;3.60;1.15;;;;;;;28.25;55.45;100872.99;1409927;100;21608;-79
2021/06/20 11:50:28;;;;;;;3.80;1.03;;;;;;;28.07;56.66;100836.70;1408745;101;21698;-79
2021/06/20 11:53:06;;;;;;;3.98;0.85;;;;;;;28.07;56.66;100836.70;1389153;103;21727;-80
2021/06/20 11:55:47;;;;;;;2.65;1.07;;;;;;;28.14;58.95;100850.66;1389064;103;21164;-80
2021/06/20 11:58:15;;;;;;;2.17;1.10;;;;;;;28.17;59.50;100855.45;1369214;104;21165;-79
2021/06/20 12:00:44;;;;;;;10.72;1.20;;;;;;;28.15;62.93;100839.80;1369389;104;21187;-79
2021/06/20 12:03:19;;;;;;;5.50;1.40;;;;;;;28.16;63.89;100836.44;1369461;104;21710;-80
2021/06/20 12:05:59;;;;;;;2.40;1.05;;;;;;;28.01;64.15;100827.91;1366780;104;21526;-80
2021/06/20 12:08:20;;;;;;;5.45;1.00;;;;;;;27.79;64.22;100823.99;1371214;104;21194;-79
2021/06/20 12:10:56;;;;;;;4.08;1.25;;;;;;;27.59;67.86;100814.14;1352188;106;21156;-79
2021/06/20 12:13:22;;;;;;;2.05;1.22;;;;;;;27.40;69.55;100831.03;1313799;109;21203;-79
2021/06/20 12:16:00;;;;;;;4.90;0.93;;;;;;;27.18;69.52;100822.16;1309030;109;21981;-79
2021/06/20 12:18:28;;;;;;;8.03;1.27;;;;;;;27.07;71.68;100816.38;1289355;110;21725;-80
2021/06/20 12:20:54;;;;;;;3.55;0.80;;;;;;;26.95;74.23;100820.11;1302475;110;21189;-81
2021/06/20 12:23:28;;;;;;;1.87;0.90;;;;;;;26.86;74.56;100833.96;1303723;110;21211;-79
2021/06/20 12:25:56;;;;;;;4.92;1.07;;;;;;;26.83;75.24;100833.30;1253134;114;21267;-80
2021/06/20 12:28:22;;;;;;;1.72;1.17;;;;;;;26.73;76.77;100821.64;1253154;113;21953;-79
2021/06/20 12:30:51;;;;;;;4.45;1.40;;;;;;;26.61;79.51;100817.64;1255951;111;21024;-79
2021/06/20 12:33:20;;;;;;;5.87;1.37;;;;;;;26.57;78.16;100822.31;1282706;111;21239;-80
2021/06/20 12:35:58;;;;;;;3.20;1.10;;;;;;;26.50;79.08;100813.85;1282698;111;21771;-79
2021/06/20 12:38:25;;;;;;;6.40;1.20;;;;;;;26.37;80.56;100810.40;1281554;111;21188;-85
2021/06/20 12:40:52;;;;;;;2.58;1.00;;;;;;;26.29;82.46;100810.81;1327295;107;21223;-85
2021/06/20 12:43:21;;;;;;;3.22;1.10;;;;;;;26.25;81.48;100808.56;1317237;107;21649;-85
2021/06/20 12:46:00;;;;;;;4.83;1.10;;;;;;;26.25;81.54;100811.33;1330543;107;21273;-84
2021/06/20 12:48:30;;;;;;;6.35;0.88;;;;;;;26.29;76.57;100813.58;1329783;107;21176;-86
2021/06/20 12:50:56;;;;;;;5.28;1.90;;;;;;;26.41;75.84;100816.80;1415835;96;21118;-84
2021/06/20 12:53:39;;;;;;;8.65;1.60;;;;;;;26.45;74.01;100818.27;1489774;96;21958;-89